sensor_id;sensor_type;location;lat;lon;timestamp;pressure;altitude;pressure_sealevel;temperature;humidity
31062;BME280;17724;53.546;9.974;2024-01-07T00:03:02;102108.19;;;0.17;96.44
31062;BME280;17724;53.546;9.974;2024-01-07T00:07:04;102113.53;;;0.09;95.99
31062;BME280;17724;53.546;9.974;2024-01-07T00:11:04;102105.41;;;-0.09;96.20
31062;BME280;17724;53.546;9.974;2024-01-07T00:15:05;102110.53;;;-0.06;96.28
31062;BME280;17724;53.546;9.974;2024-01-07T00:19:06;102127.06;;;-0.09;96.24
31062;BME280;17724;53.546;9.974;2024-01-07T00:23:06;102119.34;;;-0.21;95.93
31062;BME280;17724;53.546;9.974;2024-01-07T00:27:06;102128.94;;;-0.27;96.29
31062;BME280;17724;53.546;9.974;2024-01-07T00:31:08;102143.59;;;-0.30;96.76
31062;BME280;17724;53.546;9.974;2024-01-07T00:35:11;102138.34;;;-0.49;96.23
31062;BME280;17724;53.546;9.974;2024-01-07T00:39:11;102144.00;;;-0.42;96.71
31062;BME280;17724;53.546;9.974;2024-01-07T00:43:12;102138.59;;;-0.42;96.27
31062;BME280;17724;53.546;9.974;2024-01-07T00:47:13;102151.94;;;-0.41;96.13
31062;BME280;17724;53.546;9.974;2024-01-07T00:51:13;102153.03;;;-0.34;96.28
31062;BME280;17724;53.546;9.974;2024-01-07T00:55:14;102148.94;;;-0.20;96.58
31062;BME280;17724;53.546;9.974;2024-01-07T00:59:15;102163.88;;;-0.16;96.78
31062;BME280;17724;53.546;9.974;2024-01-07T01:03:16;102164.09;;;-0.27;96.72
31062;BME280;17724;53.546;9.974;2024-01-07T01:07:18;102170.59;;;-0.20;96.94
31062;BME280;17724;53.546;9.974;2024-01-07T01:11:19;102174.22;;;-0.11;97.10
31062;BME280;17724;53.546;9.974;2024-01-07T01:15:20;102177.38;;;-0.16;97.11
31062;BME280;17724;53.546;9.974;2024-01-07T01:19:20;102191.75;;;-0.15;96.67
31062;BME280;17724;53.546;9.974;2024-01-07T01:23:21;102199.00;;;-0.16;96.52
31062;BME280;17724;53.546;9.974;2024-01-07T01:27:21;102199.78;;;-0.06;96.47
31062;BME280;17724;53.546;9.974;2024-01-07T01:31:22;102207.34;;;-0.09;96.63
31062;BME280;17724;53.546;9.974;2024-01-07T01:35:22;102212.38;;;-0.14;96.52
31062;BME280;17724;53.546;9.974;2024-01-07T01:39:23;102217.41;;;-0.19;96.54
31062;BME280;17724;53.546;9.974;2024-01-07T01:43:28;102218.72;;;-0.23;96.71
31062;BME280;17724;53.546;9.974;2024-01-07T01:47:29;102217.84;;;-0.24;97.09
31062;BME280;17724;53.546;9.974;2024-01-07T01:51:30;102227.66;;;-0.23;96.87
31062;BME280;17724;53.546;9.974;2024-01-07T01:55:31;102234.22;;;-0.26;97.07
31062;BME280;17724;53.546;9.974;2024-01-07T01:59:33;102235.81;;;-0.33;96.28
31062;BME280;17724;53.546;9.974;2024-01-07T02:03:34;102251.53;;;-0.18;96.74
31062;BME280;17724;53.546;9.974;2024-01-07T02:07:34;102248.59;;;-0.25;96.16
31062;BME280;17724;53.546;9.974;2024-01-07T02:11:35;102251.16;;;-0.23;96.50
31062;BME280;17724;53.546;9.974;2024-01-07T02:15:35;102259.56;;;-0.27;96.05
31062;BME280;17724;53.546;9.974;2024-01-07T02:19:35;102254.50;;;-0.39;96.53
31062;BME280;17724;53.546;9.974;2024-01-07T02:23:36;102257.97;;;-0.19;96.50
31062;BME280;17724;53.546;9.974;2024-01-07T02:27:37;102265.81;;;-0.08;95.97
31062;BME280;17724;53.546;9.974;2024-01-07T02:31:37;102267.09;;;-0.03;95.52
31062;BME280;17724;53.546;9.974;2024-01-07T02:35:38;102268.03;;;0.06;95.40
31062;BME280;17724;53.546;9.974;2024-01-07T02:39:38;102270.03;;;0.04;95.20
31062;BME280;17724;53.546;9.974;2024-01-07T02:43:39;102270.19;;;0.03;95.54
31062;BME280;17724;53.546;9.974;2024-01-07T02:47:39;102273.34;;;-0.02;95.68
31062;BME280;17724;53.546;9.974;2024-01-07T02:51:40;102285.34;;;0.13;95.69
31062;BME280;17724;53.546;9.974;2024-01-07T02:55:41;102292.28;;;-0.02;95.20
31062;BME280;17724;53.546;9.974;2024-01-07T02:59:42;102295.78;;;0.08;95.61
31062;BME280;17724;53.546;9.974;2024-01-07T03:03:42;102295.25;;;0.05;95.56
31062;BME280;17724;53.546;9.974;2024-01-07T03:07:43;102289.91;;;0.13;95.62
31062;BME280;17724;53.546;9.974;2024-01-07T03:11:43;102295.69;;;0.36;95.66
31062;BME280;17724;53.546;9.974;2024-01-07T03:15:44;102298.41;;;0.36;95.17
31062;BME280;17724;53.546;9.974;2024-01-07T03:19:44;102297.63;;;0.43;95.11
31062;BME280;17724;53.546;9.974;2024-01-07T03:23:45;102304.19;;;0.23;94.99
31062;BME280;17724;53.546;9.974;2024-01-07T03:27:46;102307.69;;;0.33;95.35
31062;BME280;17724;53.546;9.974;2024-01-07T03:31:46;102313.41;;;0.30;95.16
31062;BME280;17724;53.546;9.974;2024-01-07T03:35:47;102319.28;;;0.26;95.46
31062;BME280;17724;53.546;9.974;2024-01-07T03:39:47;102315.69;;;0.07;95.06
31062;BME280;17724;53.546;9.974;2024-01-07T03:43:50;102318.75;;;0.22;95.55
31062;BME280;17724;53.546;9.974;2024-01-07T03:47:51;102330.75;;;0.37;95.59
31062;BME280;17724;53.546;9.974;2024-01-07T03:51:51;102327.66;;;0.32;95.05
31062;BME280;17724;53.546;9.974;2024-01-07T03:55:52;102330.75;;;0.37;94.72
31062;BME280;17724;53.546;9.974;2024-01-07T03:59:52;102342.34;;;0.47;95.30
31062;BME280;17724;53.546;9.974;2024-01-07T04:03:52;102330.81;;;0.45;94.79
31062;BME280;17724;53.546;9.974;2024-01-07T04:07:53;102348.75;;;0.46;94.46
31062;BME280;17724;53.546;9.974;2024-01-07T04:11:53;102345.72;;;0.32;94.34
31062;BME280;17724;53.546;9.974;2024-01-07T04:15:54;102359.88;;;0.43;94.47
31062;BME280;17724;53.546;9.974;2024-01-07T04:19:54;102365.22;;;0.71;94.45
31062;BME280;17724;53.546;9.974;2024-01-07T04:23:55;102372.28;;;0.46;93.86
31062;BME280;17724;53.546;9.974;2024-01-07T04:27:55;102378.84;;;0.43;93.81
31062;BME280;17724;53.546;9.974;2024-01-07T04:31:56;102369.91;;;0.61;93.92
31062;BME280;17724;53.546;9.974;2024-01-07T04:35:56;102375.78;;;0.56;93.19
31062;BME280;17724;53.546;9.974;2024-01-07T04:39:58;102378.84;;;0.43;92.40
31062;BME280;17724;53.546;9.974;2024-01-07T04:43:59;102383.91;;;0.56;92.45
31062;BME280;17724;53.546;9.974;2024-01-07T04:47:59;102386.81;;;0.45;91.42
31062;BME280;17724;53.546;9.974;2024-01-07T04:52:00;102391.00;;;0.57;91.67
31062;BME280;17724;53.546;9.974;2024-01-07T04:56:00;102381.09;;;0.66;91.98
31062;BME280;17724;53.546;9.974;2024-01-07T05:00:02;102402.16;;;0.72;91.31
31062;BME280;17724;53.546;9.974;2024-01-07T05:04:03;102400.59;;;0.69;89.77
31062;BME280;17724;53.546;9.974;2024-01-07T05:08:04;102407.88;;;0.69;89.83
31062;BME280;17724;53.546;9.974;2024-01-07T05:12:05;102405.16;;;0.69;89.93
31062;BME280;17724;53.546;9.974;2024-01-07T05:16:06;102410.66;;;0.77;89.61
31062;BME280;17724;53.546;9.974;2024-01-07T05:20:07;102416.09;;;0.77;88.77
31062;BME280;17724;53.546;9.974;2024-01-07T05:24:07;102409.75;;;0.68;88.93
31062;BME280;17724;53.546;9.974;2024-01-07T05:28:08;102418.75;;;0.59;88.37
31062;BME280;17724;53.546;9.974;2024-01-07T05:32:08;102426.28;;;0.65;88.22
31062;BME280;17724;53.546;9.974;2024-01-07T05:36:10;102421.63;;;0.58;88.23
31062;BME280;17724;53.546;9.974;2024-01-07T05:40:10;102433.44;;;0.84;88.42
31062;BME280;17724;53.546;9.974;2024-01-07T05:44:11;102433.81;;;0.89;87.58
31062;BME280;17724;53.546;9.974;2024-01-07T05:48:12;102432.72;;;1.00;86.99
31062;BME280;17724;53.546;9.974;2024-01-07T05:52:12;102449.50;;;0.86;87.00
31062;BME280;17724;53.546;9.974;2024-01-07T05:56:13;102453.59;;;1.08;87.69
31062;BME280;17724;53.546;9.974;2024-01-07T06:00:14;102440.66;;;1.19;87.55
31062;BME280;17724;53.546;9.974;2024-01-07T06:04:14;102446.69;;;1.31;88.11
31062;BME280;17724;53.546;9.974;2024-01-07T06:08:15;102449.88;;;1.27;88.63
31062;BME280;17724;53.546;9.974;2024-01-07T06:12:15;102456.56;;;1.32;89.08
31062;BME280;17724;53.546;9.974;2024-01-07T06:16:16;102471.69;;;1.43;89.42
31062;BME280;17724;53.546;9.974;2024-01-07T06:20:16;102475.72;;;1.57;89.18
31062;BME280;17724;53.546;9.974;2024-01-07T06:24:16;102478.97;;;1.42;88.35
31062;BME280;17724;53.546;9.974;2024-01-07T06:28:17;102484.34;;;1.52;88.99
31062;BME280;17724;53.546;9.974;2024-01-07T06:32:17;102474.81;;;1.48;89.69
31062;BME280;17724;53.546;9.974;2024-01-07T06:36:18;102474.75;;;1.40;89.75
31062;BME280;17724;53.546;9.974;2024-01-07T06:40:19;102482.88;;;1.40;89.36
31062;BME280;17724;53.546;9.974;2024-01-07T06:44:20;102478.31;;;1.22;90.93
31062;BME280;17724;53.546;9.974;2024-01-07T06:48:20;102489.22;;;1.31;91.32
31062;BME280;17724;53.546;9.974;2024-01-07T06:52:21;102497.66;;;1.28;91.71
31062;BME280;17724;53.546;9.974;2024-01-07T06:56:21;102498.81;;;1.07;92.45
31062;BME280;17724;53.546;9.974;2024-01-07T07:00:21;102511.06;;;1.29;92.82
31062;BME280;17724;53.546;9.974;2024-01-07T07:04:23;102516.56;;;1.37;92.71
31062;BME280;17724;53.546;9.974;2024-01-07T07:08:24;102523.84;;;1.37;92.56
31062;BME280;17724;53.546;9.974;2024-01-07T07:12:24;102529.25;;;1.19;94.53
31062;BME280;17724;53.546;9.974;2024-01-07T07:16:25;102528.78;;;1.23;96.03
31062;BME280;17724;53.546;9.974;2024-01-07T07:20:26;102539.94;;;1.38;97.38
31062;BME280;17724;53.546;9.974;2024-01-07T07:24:26;102538.31;;;1.28;98.84
31062;BME280;17724;53.546;9.974;2024-01-07T07:28:26;102546.22;;;1.21;100.00
31062;BME280;17724;53.546;9.974;2024-01-07T07:32:27;102530.50;;;1.07;100.00
31062;BME280;17724;53.546;9.974;2024-01-07T07:36:27;102550.38;;;1.15;100.00
31062;BME280;17724;53.546;9.974;2024-01-07T07:40:28;102565.81;;;1.15;100.00
31062;BME280;17724;53.546;9.974;2024-01-07T07:44:28;102557.66;;;1.15;100.00
31062;BME280;17724;53.546;9.974;2024-01-07T07:48:29;102562.16;;;1.06;100.00
31062;BME280;17724;53.546;9.974;2024-01-07T07:52:29;102557.53;;;1.16;100.00
31062;BME280;17724;53.546;9.974;2024-01-07T07:56:30;102584.22;;;1.11;100.00
31062;BME280;17724;53.546;9.974;2024-01-07T08:00:30;102579.03;;;1.00;100.00
31062;BME280;17724;53.546;9.974;2024-01-07T08:04:31;102583.28;;;1.03;100.00
31062;BME280;17724;53.546;9.974;2024-01-07T08:08:31;102586.19;;;0.91;100.00
31062;BME280;17724;53.546;9.974;2024-01-07T08:12:32;102594.97;;;0.76;100.00
31062;BME280;17724;53.546;9.974;2024-01-07T08:16:32;102599.53;;;0.75;100.00
31062;BME280;17724;53.546;9.974;2024-01-07T08:20:33;102606.03;;;0.92;100.00
31062;BME280;17724;53.546;9.974;2024-01-07T08:24:33;102616.41;;;0.96;100.00
31062;BME280;17724;53.546;9.974;2024-01-07T08:28:34;102611.31;;;0.84;100.00
31062;BME280;17724;53.546;9.974;2024-01-07T08:32:34;102611.28;;;0.93;100.00
31062;BME280;17724;53.546;9.974;2024-01-07T08:36:35;102616.59;;;0.85;100.00
31062;BME280;17724;53.546;9.974;2024-01-07T08:40:35;102628.06;;;0.69;100.00
31062;BME280;17724;53.546;9.974;2024-01-07T08:44:36;102638.75;;;0.71;100.00
31062;BME280;17724;53.546;9.974;2024-01-07T08:48:36;102641.56;;;0.79;100.00
31062;BME280;17724;53.546;9.974;2024-01-07T08:52:37;102646.94;;;0.61;100.00
31062;BME280;17724;53.546;9.974;2024-01-07T08:56:37;102657.88;;;0.69;100.00
31062;BME280;17724;53.546;9.974;2024-01-07T09:00:39;102668.41;;;0.72;100.00
31062;BME280;17724;53.546;9.974;2024-01-07T09:04:40;102676.19;;;0.85;100.00
31062;BME280;17724;53.546;9.974;2024-01-07T09:08:40;102671.78;;;0.84;100.00
31062;BME280;17724;53.546;9.974;2024-01-07T09:12:42;102676.59;;;0.53;100.00
31062;BME280;17724;53.546;9.974;2024-01-07T09:16:42;102683.19;;;0.88;100.00
31062;BME280;17724;53.546;9.974;2024-01-07T09:20:43;102688.50;;;0.70;100.00
31062;BME280;17724;53.546;9.974;2024-01-07T09:24:43;102690.81;;;0.65;100.00
31062;BME280;17724;53.546;9.974;2024-01-07T09:28:44;102695.63;;;0.71;100.00
31062;BME280;17724;53.546;9.974;2024-01-07T09:32:44;102691.72;;;0.83;100.00
31062;BME280;17724;53.546;9.974;2024-01-07T09:36:45;102700.22;;;0.61;98.94
31062;BME280;17724;53.546;9.974;2024-01-07T09:40:45;102715.19;;;0.65;98.43
31062;BME280;17724;53.546;9.974;2024-01-07T09:44:46;102715.38;;;0.44;99.09
31062;BME280;17724;53.546;9.974;2024-01-07T09:48:48;102712.19;;;0.58;98.54
31062;BME280;17724;53.546;9.974;2024-01-07T09:52:50;102704.34;;;0.55;97.72
31062;BME280;17724;53.546;9.974;2024-01-07T09:57:00;102713.53;;;0.44;97.57
31062;BME280;17724;53.546;9.974;2024-01-07T10:01:01;102721.41;;;0.75;97.10
31062;BME280;17724;53.546;9.974;2024-01-07T10:05:02;102721.28;;;0.77;95.38
31062;BME280;17724;53.546;9.974;2024-01-07T10:09:06;102716.34;;;0.53;95.49
31062;BME280;17724;53.546;9.974;2024-01-07T10:13:07;102714.91;;;0.58;95.56
31062;BME280;17724;53.546;9.974;2024-01-07T10:17:15;102718.31;;;0.70;95.60
31062;BME280;17724;53.546;9.974;2024-01-07T10:21:16;102725.56;;;0.69;94.84
31062;BME280;17724;53.546;9.974;2024-01-07T10:25:18;102726.72;;;0.67;94.21
31062;BME280;17724;53.546;9.974;2024-01-07T10:29:19;102722.75;;;0.61;94.36
31062;BME280;17724;53.546;9.974;2024-01-07T10:33:21;102724.44;;;0.72;94.19
31062;BME280;17724;53.546;9.974;2024-01-07T10:37:23;102728.13;;;0.81;93.17
31062;BME280;17724;53.546;9.974;2024-01-07T10:41:25;102740.78;;;0.90;93.33
31062;BME280;17724;53.546;9.974;2024-01-07T10:45:26;102731.75;;;0.52;93.31
31062;BME280;17724;53.546;9.974;2024-01-07T10:49:27;102730.50;;;0.93;93.85
31062;BME280;17724;53.546;9.974;2024-01-07T10:53:33;102740.59;;;0.91;94.34
31062;BME280;17724;53.546;9.974;2024-01-07T10:57:45;102728.63;;;0.94;92.36
31062;BME280;17724;53.546;9.974;2024-01-07T11:01:47;102725.94;;;0.94;93.17
31062;BME280;17724;53.546;9.974;2024-01-07T11:05:56;102745.56;;;1.06;92.78
31062;BME280;17724;53.546;9.974;2024-01-07T11:14:01;102749.50;;;1.21;91.92
31062;BME280;17724;53.546;9.974;2024-01-07T11:18:03;102731.28;;;1.04;92.79
31062;BME280;17724;53.546;9.974;2024-01-07T11:22:25;102741.22;;;1.22;94.03
31062;BME280;17724;53.546;9.974;2024-01-07T11:26:28;102748.88;;;1.37;94.14
31062;BME280;17724;53.546;9.974;2024-01-07T11:30:38;102729.69;;;1.20;94.07
31062;BME280;17724;53.546;9.974;2024-01-07T11:38:50;102748.50;;;1.22;94.43
31062;BME280;17724;53.546;9.974;2024-01-07T11:42:50;102747.56;;;1.41;95.03
31062;BME280;17724;53.546;9.974;2024-01-07T11:46:52;102746.91;;;1.29;93.66
31062;BME280;17724;53.546;9.974;2024-01-07T11:50:52;102746.16;;;1.37;93.97
31062;BME280;17724;53.546;9.974;2024-01-07T11:54:53;102754.63;;;1.52;93.82
31062;BME280;17724;53.546;9.974;2024-01-07T11:58:54;102745.91;;;1.30;93.07
31062;BME280;17724;53.546;9.974;2024-01-07T12:02:56;102750.63;;;1.28;94.22
31062;BME280;17724;53.546;9.974;2024-01-07T12:06:57;102744.28;;;1.37;94.79
31062;BME280;17724;53.546;9.974;2024-01-07T12:10:59;102749.91;;;1.26;95.88
31062;BME280;17724;53.546;9.974;2024-01-07T12:14:59;102754.47;;;1.26;95.00
31062;BME280;17724;53.546;9.974;2024-01-07T12:19:00;102757.69;;;1.39;94.18
31062;BME280;17724;53.546;9.974;2024-01-07T12:23:08;102757.03;;;1.55;93.85
31062;BME280;17724;53.546;9.974;2024-01-07T12:27:08;102747.88;;;1.01;91.51
31062;BME280;17724;53.546;9.974;2024-01-07T12:31:09;102750.31;;;0.94;92.04
31062;BME280;17724;53.546;9.974;2024-01-07T12:35:09;102748.00;;;0.99;92.14
31062;BME280;17724;53.546;9.974;2024-01-07T12:39:10;102732.38;;;0.83;92.45
31062;BME280;17724;53.546;9.974;2024-01-07T12:43:11;102742.63;;;1.27;93.61
31062;BME280;17724;53.546;9.974;2024-01-07T12:47:11;102735.53;;;1.43;92.83
31062;BME280;17724;53.546;9.974;2024-01-07T12:51:11;102755.81;;;1.39;91.71
31062;BME280;17724;53.546;9.974;2024-01-07T12:55:12;102752.53;;;1.45;91.87
31062;BME280;17724;53.546;9.974;2024-01-07T12:59:13;102765.16;;;1.27;91.50
31062;BME280;17724;53.546;9.974;2024-01-07T13:03:13;102766.66;;;1.39;92.09
31062;BME280;17724;53.546;9.974;2024-01-07T13:07:17;102768.63;;;1.47;91.94
31062;BME280;17724;53.546;9.974;2024-01-07T13:11:18;102777.19;;;1.15;90.51
31062;BME280;17724;53.546;9.974;2024-01-07T13:15:18;102768.81;;;1.08;90.91
31062;BME280;17724;53.546;9.974;2024-01-07T13:19:19;102773.44;;;1.26;91.43
31062;BME280;17724;53.546;9.974;2024-01-07T13:23:20;102786.91;;;1.17;91.02
31062;BME280;17724;53.546;9.974;2024-01-07T13:27:21;102782.16;;;1.19;90.96
31062;BME280;17724;53.546;9.974;2024-01-07T13:31:23;102790.91;;;1.13;89.01
31062;BME280;17724;53.546;9.974;2024-01-07T13:35:24;102794.13;;;0.70;87.19
31062;BME280;17724;53.546;9.974;2024-01-07T13:39:25;102805.53;;;0.73;87.21
31062;BME280;17724;53.546;9.974;2024-01-07T13:43:25;102810.75;;;0.94;86.83
31062;BME280;17724;53.546;9.974;2024-01-07T13:47:29;102808.09;;;0.85;86.21
31062;BME280;17724;53.546;9.974;2024-01-07T13:51:29;102813.78;;;0.82;85.16
31062;BME280;17724;53.546;9.974;2024-01-07T13:55:30;102817.81;;;0.68;83.33
31062;BME280;17724;53.546;9.974;2024-01-07T13:59:31;102819.91;;;0.84;83.36
31062;BME280;17724;53.546;9.974;2024-01-07T14:03:32;102820.06;;;0.43;81.01
31062;BME280;17724;53.546;9.974;2024-01-07T14:07:33;102823.66;;;0.44;80.82
31062;BME280;17724;53.546;9.974;2024-01-07T14:11:33;102823.22;;;0.39;80.25
31062;BME280;17724;53.546;9.974;2024-01-07T14:15:34;102832.75;;;0.33;80.69
31062;BME280;17724;53.546;9.974;2024-01-07T14:19:35;102842.31;;;0.47;80.29
31062;BME280;17724;53.546;9.974;2024-01-07T14:23:35;102835.03;;;0.28;79.37
31062;BME280;17724;53.546;9.974;2024-01-07T14:27:36;102835.00;;;0.09;79.31
31062;BME280;17724;53.546;9.974;2024-01-07T14:31:36;102826.47;;;0.13;80.28
31062;BME280;17724;53.546;9.974;2024-01-07T14:35:37;102851.81;;;0.12;81.71
31062;BME280;17724;53.546;9.974;2024-01-07T14:39:37;102852.28;;;0.37;82.61
31062;BME280;17724;53.546;9.974;2024-01-07T14:43:38;102852.41;;;0.26;82.33
31062;BME280;17724;53.546;9.974;2024-01-07T14:47:39;102862.34;;;0.06;83.17
31062;BME280;17724;53.546;9.974;2024-01-07T14:51:39;102859.94;;;0.32;83.68
31062;BME280;17724;53.546;9.974;2024-01-07T14:55:40;102867.53;;;0.28;83.12
31062;BME280;17724;53.546;9.974;2024-01-07T14:59:41;102880.16;;;0.08;81.96
31062;BME280;17724;53.546;9.974;2024-01-07T15:03:41;102865.03;;;0.06;82.70
31062;BME280;17724;53.546;9.974;2024-01-07T15:07:42;102886.19;;;-0.19;81.49
31062;BME280;17724;53.546;9.974;2024-01-07T15:11:44;102871.44;;;0.05;83.67
31062;BME280;17724;53.546;9.974;2024-01-07T15:15:48;102868.97;;;-0.08;82.69
31062;BME280;17724;53.546;9.974;2024-01-07T15:19:48;102882.28;;;0.14;84.04
31062;BME280;17724;53.546;9.974;2024-01-07T15:23:49;102880.59;;;0.13;84.04
31062;BME280;17724;53.546;9.974;2024-01-07T15:27:49;102883.72;;;0.09;84.26
31062;BME280;17724;53.546;9.974;2024-01-07T15:31:50;102880.94;;;-0.11;83.71
31062;BME280;17724;53.546;9.974;2024-01-07T15:35:50;102875.81;;;-0.14;85.75
31062;BME280;17724;53.546;9.974;2024-01-07T15:39:51;102880.63;;;-0.17;86.12
31062;BME280;17724;53.546;9.974;2024-01-07T15:43:52;102886.78;;;-0.06;86.08
31062;BME280;17724;53.546;9.974;2024-01-07T15:47:52;102888.78;;;-0.38;84.01
31062;BME280;17724;53.546;9.974;2024-01-07T15:51:53;102882.84;;;-0.32;86.05
31062;BME280;17724;53.546;9.974;2024-01-07T15:55:54;102879.31;;;-0.54;85.41
31062;BME280;17724;53.546;9.974;2024-01-07T15:59:54;102897.16;;;-0.41;86.12
31062;BME280;17724;53.546;9.974;2024-01-07T16:03:55;102897.16;;;-0.41;85.23
31062;BME280;17724;53.546;9.974;2024-01-07T16:07:55;102894.13;;;-0.48;85.18
31062;BME280;17724;53.546;9.974;2024-01-07T16:11:56;102903.53;;;-0.21;85.84
31062;BME280;17724;53.546;9.974;2024-01-07T16:15:56;102902.06;;;-0.35;85.11
31062;BME280;17724;53.546;9.974;2024-01-07T16:19:57;102903.91;;;-0.36;85.19
31062;BME280;17724;53.546;9.974;2024-01-07T16:23:57;102909.19;;;-0.25;86.21
31062;BME280;17724;53.546;9.974;2024-01-07T16:27:58;102910.34;;;-0.27;86.12
31062;BME280;17724;53.546;9.974;2024-01-07T16:31:59;102913.97;;;-0.07;85.98
31062;BME280;17724;53.546;9.974;2024-01-07T16:36:04;102912.97;;;-0.16;86.12
31062;BME280;17724;53.546;9.974;2024-01-07T16:40:06;102919.97;;;-0.04;85.99
31062;BME280;17724;53.546;9.974;2024-01-07T16:44:07;102930.47;;;-0.10;86.19
31062;BME280;17724;53.546;9.974;2024-01-07T16:48:09;102933.59;;;0.26;87.75
31062;BME280;17724;53.546;9.974;2024-01-07T16:52:09;102938.69;;;0.09;86.73
31062;BME280;17724;53.546;9.974;2024-01-07T16:56:10;102935.03;;;-0.11;86.71
31062;BME280;17724;53.546;9.974;2024-01-07T17:00:11;102945.34;;;0.05;88.32
31062;BME280;17724;53.546;9.974;2024-01-07T17:04:13;102940.22;;;0.12;87.20
31062;BME280;17724;53.546;9.974;2024-01-07T17:08:13;102937.66;;;0.01;86.82
31062;BME280;17724;53.546;9.974;2024-01-07T17:12:14;102938.94;;;-0.25;86.75
31062;BME280;17724;53.546;9.974;2024-01-07T17:16:14;102945.28;;;-0.14;87.42
31062;BME280;17724;53.546;9.974;2024-01-07T17:20:15;102945.22;;;0.07;87.67
31062;BME280;17724;53.546;9.974;2024-01-07T17:24:17;102953.31;;;0.07;87.50
31062;BME280;17724;53.546;9.974;2024-01-07T17:28:18;102952.09;;;0.20;87.71
31062;BME280;17724;53.546;9.974;2024-01-07T17:32:18;102954.75;;;0.11;87.42
31062;BME280;17724;53.546;9.974;2024-01-07T17:36:22;102960.59;;;0.06;87.16
31062;BME280;17724;53.546;9.974;2024-01-07T17:40:23;102969.03;;;0.13;86.59
31062;BME280;17724;53.546;9.974;2024-01-07T17:44:23;102969.19;;;-0.10;86.23
31062;BME280;17724;53.546;9.974;2024-01-07T17:48:24;102972.50;;;-0.06;86.57
31062;BME280;17724;53.546;9.974;2024-01-07T17:52:25;102979.13;;;0.11;86.31
31062;BME280;17724;53.546;9.974;2024-01-07T17:56:27;102973.97;;;0.08;84.96
31062;BME280;17724;53.546;9.974;2024-01-07T18:00:29;102973.16;;;0.17;85.13
31062;BME280;17724;53.546;9.974;2024-01-07T18:04:30;102977.59;;;0.28;84.30
31062;BME280;17724;53.546;9.974;2024-01-07T18:08:30;102968.38;;;0.30;84.89
31062;BME280;17724;53.546;9.974;2024-01-07T18:12:32;102980.47;;;0.26;84.19
31062;BME280;17724;53.546;9.974;2024-01-07T18:16:33;102983.22;;;0.45;84.50
31062;BME280;17724;53.546;9.974;2024-01-07T18:20:36;102982.56;;;0.13;82.90
31062;BME280;17724;53.546;9.974;2024-01-07T18:24:36;102984.44;;;0.32;83.86
31062;BME280;17724;53.546;9.974;2024-01-07T18:28:38;102982.22;;;0.37;83.71
31062;BME280;17724;53.546;9.974;2024-01-07T18:32:38;102994.81;;;0.17;83.47
31062;BME280;17724;53.546;9.974;2024-01-07T18:36:39;103000.66;;;-0.09;84.22
31062;BME280;17724;53.546;9.974;2024-01-07T18:40:40;103008.28;;;0.07;85.17
31062;BME280;17724;53.546;9.974;2024-01-07T18:44:41;102994.53;;;-0.11;84.96
31062;BME280;17724;53.546;9.974;2024-01-07T18:48:41;103005.59;;;0.07;85.44
31062;BME280;17724;53.546;9.974;2024-01-07T18:52:42;103009.06;;;0.19;86.14
31062;BME280;17724;53.546;9.974;2024-01-07T18:56:43;103005.00;;;0.34;85.61
31062;BME280;17724;53.546;9.974;2024-01-07T19:00:43;103011.00;;;0.07;85.17
31062;BME280;17724;53.546;9.974;2024-01-07T19:04:44;103024.31;;;-0.32;85.94
31062;BME280;17724;53.546;9.974;2024-01-07T19:08:44;103019.88;;;-0.12;87.06
31062;BME280;17724;53.546;9.974;2024-01-07T19:12:45;103015.00;;;-0.18;86.43
31062;BME280;17724;53.546;9.974;2024-01-07T19:16:45;103039.16;;;-0.26;86.38
31062;BME280;17724;53.546;9.974;2024-01-07T19:20:46;103043.03;;;-0.19;87.16
31062;BME280;17724;53.546;9.974;2024-01-07T19:24:47;103029.63;;;-0.20;87.56
31062;BME280;17724;53.546;9.974;2024-01-07T19:28:50;103042.19;;;-0.19;87.00
31062;BME280;17724;53.546;9.974;2024-01-07T19:32:50;103042.78;;;-0.16;86.81
31062;BME280;17724;53.546;9.974;2024-01-07T19:36:51;103047.47;;;-0.39;86.57
31062;BME280;17724;53.546;9.974;2024-01-07T19:40:52;103053.63;;;-0.48;87.87
31062;BME280;17724;53.546;9.974;2024-01-07T19:44:53;103044.56;;;-0.47;87.98
31062;BME280;17724;53.546;9.974;2024-01-07T19:48:54;103042.16;;;-0.40;88.05
31062;BME280;17724;53.546;9.974;2024-01-07T19:52:55;103056.69;;;-0.20;89.16
31062;BME280;17724;53.546;9.974;2024-01-07T19:56:55;103059.31;;;-0.09;88.62
31062;BME280;17724;53.546;9.974;2024-01-07T20:00:56;103069.44;;;-0.11;88.34
31062;BME280;17724;53.546;9.974;2024-01-07T20:04:56;103058.59;;;-0.11;88.43
31062;BME280;17724;53.546;9.974;2024-01-07T20:08:58;103070.34;;;-0.22;88.10
31062;BME280;17724;53.546;9.974;2024-01-07T20:12:58;103064.41;;;-0.16;88.84
31062;BME280;17724;53.546;9.974;2024-01-07T20:16:59;103063.53;;;-0.37;89.17
31062;BME280;17724;53.546;9.974;2024-01-07T20:20:59;103065.28;;;-0.15;89.49
31062;BME280;17724;53.546;9.974;2024-01-07T20:25:00;103074.28;;;-0.05;89.46
31062;BME280;17724;53.546;9.974;2024-01-07T20:29:00;103059.00;;;0.05;89.69
31062;BME280;17724;53.546;9.974;2024-01-07T20:33:04;103053.97;;;-0.20;89.05
31062;BME280;17724;53.546;9.974;2024-01-07T20:37:10;103065.84;;;0.09;90.92
31062;BME280;17724;53.546;9.974;2024-01-07T20:41:11;103069.53;;;-0.13;90.49
31062;BME280;17724;53.546;9.974;2024-01-07T20:45:12;103075.06;;;0.07;90.81
31062;BME280;17724;53.546;9.974;2024-01-07T20:49:14;103071.59;;;-0.05;91.48
31062;BME280;17724;53.546;9.974;2024-01-07T20:53:14;103075.06;;;0.07;91.65
31062;BME280;17724;53.546;9.974;2024-01-07T20:57:16;103084.31;;;-0.17;91.68
31062;BME280;17724;53.546;9.974;2024-01-07T21:01:24;103087.78;;;-0.15;92.34
31062;BME280;17724;53.546;9.974;2024-01-07T21:05:25;103086.38;;;-0.30;93.76
31062;BME280;17724;53.546;9.974;2024-01-07T21:09:25;103086.91;;;0.06;96.31
31062;BME280;17724;53.546;9.974;2024-01-07T21:13:26;103092.75;;;0.11;94.64
31062;BME280;17724;53.546;9.974;2024-01-07T21:17:26;103097.34;;;-0.11;93.96